Latest Coastal Weather Observations for Devonport Airport

IDV60701

Issued at 6:05 am EST Monday 22 September 2014 (issued every 10 minutes, with the page automatically refreshed every 10 minutes)

About coastal observations | Map of coastal stations | Coastal observations for VIC | Marine services | Other Formats
Station Details ID: 091126 Name: DEVONPORT AIRPORT Lat: -41.17 Lon: 146.43 Height: 8.0 m
Data from the previous 72 hours. | See also: Recent months at Devonport Airport
Date/Time
EST
Temp

°C
Wind Pressure Rain
since 9am
mm
Weather Cloud Vis
km
Sea
Height
m
Swell
Dir
 
Speed
knots
Gust
knots
hPa Trend Height
m
Period
s
Dir
22/06:00am 8.1 S 8 9 1029.1 - 0.0 - Cloudy 10 - - - -
22/05:30am 7.4 S 7 8 1028.9 - 0.0 - Cloudy 10 - - - -
22/05:00am 6.5 SSE 7 8 1028.8 - 0.0 - Cloudy 10 - - - -
22/04:30am 5.6 SSE 7 8 1028.4 - 0.0 - Partly cloudy 10 - - - -
22/04:11am 5.7 S 8 9 1028.2 - 0.0 - Partly cloudy 10 - - - -
22/04:00am 5.8 S 7 8 1028.1 - 0.0 - Partly cloudy 10 - - - -
22/03:30am 6.2 S 7 8 1027.6 - 0.0 - - 10 - - - -
22/03:00am 6.3 S 9 10 1027.8 - 0.0 - - 10 - - - -
22/02:30am 6.4 S 8 9 1027.9 - 0.0 - - 10 - - - -
22/02:00am 6.6 S 6 7 1028.0 - 0.0 - - 10 - - - -
22/01:30am 7.0 S 8 9 1028.2 - 0.0 - - 10 - - - -
22/01:00am 7.1 S 7 8 1028.3 - 0.0 - - 10 - - - -
22/12:30am 6.6 SSE 6 7 1028.5 - 0.0 - - 10 - - - -
22/12:00am 7.9 S 5 7 1028.5 - 0.0 - - 10 - - - -
 
Date/Time
EST
Temp

°C
Wind Pressure Rain
since 9am
mm
Weather Cloud Vis
km
Sea
Height
m
Swell
Dir
 
Speed
knots
Gust
knots
hPa Trend Height
m
Period
s
Dir
21/11:30pm 8.8 S 6 7 1028.5 - 0.0 - - 10 - - - -
21/11:00pm 8.6 S 6 7 1028.4 - 0.0 - - 10 - - - -
21/10:30pm 8.9 SSE 6 8 1028.3 - 0.0 - - 10 - - - -
21/10:00pm 9.6 SSE 6 7 1028.4 - 0.0 - - 10 - - - -
21/09:30pm 10.1 S 7 8 1028.4 - 0.0 - - 10 - - - -
21/09:00pm 9.9 S 7 8 1028.3 - 0.0 - - 10 - - - -
21/08:30pm 9.9 S 5 6 1028.3 - 0.0 - - 10 - - - -
21/08:00pm 9.6 ESE 4 5 1027.9 - 0.0 - - 10 - - - -
21/07:30pm 10.3 E 4 6 1027.7 - 0.0 - - 10 - - - -
21/07:00pm 11.0 NE 3 4 1027.5 - 0.0 - - 10 - - - -
21/06:30pm 12.6 NNW 1 4 1027.2 - 0.0 - - 10 - - - -
21/06:00pm 13.9 WNW 3 7 1027.0 - 0.0 - - 10 - - - -
21/05:30pm 14.3 NNW 9 10 1026.7 - 0.0 - - 10 - - - -
21/05:00pm 14.4 N 9 11 1026.6 - 0.0 - - 10 - - - -
21/04:30pm 15.9 NNW 9 11 1026.5 - 0.0 - - 10 - - - -
21/04:00pm 16.2 NNW 9 12 1026.5 - 0.0 - - 10 - - - -
21/03:30pm 15.8 NNW 9 13 1026.4 - 0.0 - - 10 - - - -
21/03:00pm 16.1 NNW 9 12 1026.6 - 0.0 - - 10 - - - -
21/02:30pm 16.1 NNW 7 9 1026.8 - 0.0 - - 10 - - - -
21/02:00pm 16.3 N 7 8 1026.8 - 0.0 - - 10 - - - -
21/01:30pm 17.0 N 7 8 1027.0 - 0.0 - - 10 - - - -
21/01:00pm 16.5 N 7 9 1027.0 - 0.0 - - 10 - - - -
21/12:30pm 16.2 N 6 7 1027.3 - 0.0 - - 10 - - - -
21/12:00pm 15.2 N 8 10 1027.7 - 0.0 - - 10 - - - -
21/11:30am 14.7 NNW 10 13 1027.8 - 0.0 - - 10 - - - -
21/11:00am 14.0 NNW 11 14 1028.1 - 0.0 - - 10 - - - -
21/10:30am 14.0 NNW 12 15 1028.3 - 0.0 - - 10 - - - -
21/10:00am 13.6 NW 11 15 1028.4 - 0.0 - - 10 - - - -
21/09:30am 13.0 NW 7 13 1028.5 - 0.0 - - 10 - - - -
21/09:00am 12.0 NE 6 9 1028.6 - 0.0 - - 10 - - - -
21/08:30am 11.6 WSW 3 8 1028.5 - 0.0 - - 10 - - - -
21/08:00am 10.3 NE 2 3 1028.6 - 0.0 - - 10 - - - -
21/07:30am 6.5 S 4 6 1028.5 - 0.0 - - 10 - - - -
21/07:00am 4.5 SE 4 6 1028.3 - 0.0 - - 10 - - - -
21/06:30am 4.4 S 6 7 1028.1 - 0.0 - - 10 - - - -
21/06:00am 4.9 SSE 7 8 1027.7 - 0.0 - - 10 - - - -
21/05:30am 5.0 SSE 6 7 1027.6 - 0.0 - - 10 - - - -
21/05:00am 4.8 S 6 8 1027.3 - 0.0 - - 10 - - - -
21/04:30am 4.7 S 5 7 1027.1 - 0.0 - - 10 - - - -
21/04:00am 6.1 SSW 3 6 1027.0 - 0.0 - - 10 - - - -
21/03:30am 6.2 WSW 6 9 1026.8 - 0.0 - - 10 - - - -
21/03:00am 6.5 WSW 4 5 1026.9 - 0.0 - - 10 - - - -
21/02:30am 5.8 WSW 5 6 1026.9 - 0.0 - - 10 - - - -
21/02:00am 5.4 S 2 3 1027.1 - 0.0 - - 10 - - - -
21/01:30am 6.7 WNW 6 9 1027.3 - 0.0 - - 10 - - - -
21/01:00am 9.1 SW 7 9 1027.5 - 0.0 - - 10 - - - -
21/12:30am 9.2 SW 6 9 1027.4 - 0.0 - - 10 - - - -
21/12:00am 8.2 SW 5 7 1027.1 - 0.0 - - 10 - - - -
 
Date/Time
EST
Temp

°C
Wind Pressure Rain
since 9am
mm
Weather Cloud Vis
km
Sea
Height
m
Swell
Dir
 
Speed
knots
Gust
knots
hPa Trend Height
m
Period
s
Dir
20/11:30pm 9.9 SW 8 11 1027.1 - 0.0 - - 10 - - - -
20/11:00pm 6.1 SSE 4 5 1027.3 - 0.0 - - 10 - - - -
20/10:30pm 6.1 CALM 0 0 1027.2 - 0.0 - - 10 - - - -
20/10:00pm 6.6 CALM 0 0 1027.3 - 0.0 - - 10 - - - -
20/09:30pm 8.5 S 6 8 1027.3 - 0.0 - - 10 - - - -
20/09:00pm 9.4 SSE 7 11 1027.0 - 0.0 - - 10 - - - -
20/08:30pm 9.2 SE 5 7 1026.7 - 0.0 - - 10 - - - -
20/08:00pm 11.3 SW 8 13 1026.3 - 0.0 - - 10 - - - -
20/07:30pm 11.6 SSW 8 13 1025.8 - 0.0 - - 10 - - - -
20/07:00pm 12.1 SW 13 19 1025.7 - 0.0 - - 10 - - - -
20/06:30pm 12.7 SSW 13 20 1025.3 - 0.0 - - 10 - - - -
20/06:00pm 13.2 SSW 15 20 1025.2 - 0.0 - - 10 - - - -
20/05:30pm 14.2 SW 17 22 1024.8 - 0.0 - - 10 - - - -
20/05:00pm 15.1 SW 15 22 1024.4 - 0.0 - - 10 - - - -
20/04:49pm 15.4 SW 15 26 1024.2 - 0.0 - - 10 - - - -
20/04:30pm 15.5 WSW 18 23 1024.1 - 0.0 - - 10 - - - -
20/04:00pm 16.5 WSW 17 24 1023.8 - 0.0 - - 10 - - - -
20/03:30pm 17.0 WSW 16 21 1023.6 - 0.0 - - 10 - - - -
20/03:00pm 17.2 WSW 16 20 1023.4 - 0.0 - - 10 - - - -
20/02:30pm 17.0 WSW 17 22 1023.6 - 0.0 - - 10 - - - -
20/02:00pm 17.3 WSW 15 19 1023.4 - 0.0 - - 10 - - - -
20/01:30pm 17.9 WSW 11 16 1023.4 - 0.0 - - 10 - - - -
20/01:00pm 17.7 W 13 19 1023.7 - 0.0 - - 10 - - - -
20/12:30pm 17.1 W 11 16 1023.7 - 0.0 - - 10 - - - -
20/12:00pm 16.3 WNW 13 16 1024.1 - 0.0 - - 10 - - - -
20/11:30am 16.5 WSW 9 15 1024.4 - 0.0 - - 10 - - - -
20/11:00am 15.9 NW 7 10 1024.6 - 0.0 - - 10 - - - -
20/10:30am 15.4 WSW 10 14 1024.9 - 0.0 - - 10 - - - -
20/10:00am 15.2 WSW 9 14 1025.0 - 0.0 - - 10 - - - -
20/09:30am 14.5 WSW 10 13 1025.0 - 0.0 - - 10 - - - -
20/09:00am 13.7 WNW 5 10 1025.2 - 0.0 - - 10 - - - -
20/08:30am 12.0 W 4 6 1025.0 - 0.0 - - 10 - - - -
20/08:00am 10.5 CALM 0 0 1024.9 - 0.0 - - 10 - - - -
20/07:30am 8.8 SE 3 4 1024.5 - 0.0 - - 10 - - - -
20/07:00am 5.9 S 5 6 1024.2 - 0.0 - - 10 - - - -
20/06:30am 5.1 S 5 6 1023.8 - 0.0 - - 10 - - - -
20/06:00am 5.2 W 4 5 1023.4 - 0.0 - - 10 - - - -
20/05:30am 5.6 N 1 4 1022.9 - 0.0 - - 10 - - - -
20/05:00am 4.9 SSW 4 4 1022.4 - 0.0 - - 10 - - - -
20/04:30am 7.4 SW 5 7 1022.1 - 0.0 - - 10 - - - -
20/04:00am 7.8 WSW 6 8 1021.6 - 0.0 - - 10 - - - -
20/03:30am 7.7 W 6 8 1021.5 - 0.0 - - 10 - - - -
20/03:00am 7.6 W 10 11 1021.2 - 0.0 - - 10 - - - -
20/02:30am 8.6 W 9 11 1021.2 - 0.0 - - 10 - - - -
20/02:00am 9.3 W 12 14 1021.1 - 0.0 - - 10 - - - -
20/01:30am 8.7 W 8 11 1021.4 - 0.0 - Partly cloudy 10 - - - -
20/01:00am 9.0 W 9 11 1021.4 - 0.0 - Partly cloudy 10 - - - -
20/12:30am 9.5 WSW 4 6 1021.2 - 0.0 - Partly cloudy 10 - - - -
20/12:00am 9.2 WSW 11 13 1020.7 - 0.0 - - 10 - - - -
 
Date/Time
EST
Temp

°C
Wind Pressure Rain
since 9am
mm
Weather Cloud Vis
km
Sea
Height
m
Swell
Dir
 
Speed
knots
Gust
knots
hPa Trend Height
m
Period
s
Dir
19/11:30pm 9.7 W 12 14 1020.8 - 0.0 - - 10 - - - -
19/11:00pm 9.8 W 10 13 1020.8 - 0.0 - - 10 - - - -
19/10:30pm 10.8 W 5 8 1020.9 - 0.0 - - 10 - - - -
19/10:00pm 11.5 WSW 5 10 1020.8 - 0.0 - - 10 - - - -
19/09:30pm 10.7 WNW 8 9 1020.5 - 0.0 - - 10 - - - -
19/09:00pm 11.3 WNW 10 13 1020.3 - 0.0 - Mostly clear 10 - - - -
19/08:30pm 12.2 WNW 12 15 1020.0 - 0.0 - Partly cloudy 10 - - - -
19/08:00pm 12.5 WNW 16 22 1019.4 - 0.0 - Partly cloudy 10 - - - -
19/07:30pm 12.7 NW 17 23 1019.2 - 0.0 - Partly cloudy 10 - - - -
19/07:00pm 12.5 WNW 16 19 1019.1 - 0.0 - Partly cloudy 10 - - - -
19/06:30pm 12.6 NW 17 21 1018.7 - 0.0 - Cloudy 10 - - - -
19/06:00pm 12.8 NW 16 20 1018.3 - 0.0 - Mostly clear 10 - - - -
19/05:30pm 12.9 NW 16 20 1018.1 - 0.0 - - 10 - - - -
19/05:00pm 13.0 NW 15 19 1018.0 - 0.0 - - 10 - - - -
19/04:30pm 13.3 NW 14 17 1017.8 - 0.0 - Partly cloudy 10 - - - -
19/04:00pm 13.7 W 11 18 1017.7 - 0.0 - - 10 - - - -
19/03:30pm 13.7 W 10 14 1017.5 - 0.0 - - 10 - - - -
19/03:00pm 13.3 WNW 14 17 1017.4 - 0.0 - Partly cloudy 10 - - - -
19/02:30pm 13.7 W 10 14 1017.5 - 0.0 - - 10 - - - -
19/02:00pm 13.6 W 10 13 1017.4 - 0.0 - - 10 - - - -
19/01:30pm 13.6 W 13 18 1017.7 - 0.0 - Partly cloudy 10 - - - -
19/01:00pm 13.7 W 12 16 1017.9 - 0.0 - Partly cloudy 10 - - - -
19/12:30pm 14.0 W 10 14 1018.1 - 0.0 - Partly cloudy 10 - - - -
19/12:00pm 14.2 WSW 12 16 1018.3 - 0.0 - Cloudy 10 - - - -
19/11:30am 13.9 SW 12 19 1018.2 - 0.0 - - 10 - - - -
19/11:00am 13.4 WSW 15 21 1018.4 - 0.0 - - 10 - - - -
19/10:30am 13.1 WSW 12 18 1018.5 - 0.0 - - 10 - - - -
19/10:00am 13.0 WSW 12 16 1018.7 - 0.0 - - 10 - - - -
19/09:30am 13.0 WSW 12 19 1018.5 - 0.0 - - 10 - - - -
19/09:00am 12.5 W 15 19 1018.3 - 0.0 - Partly cloudy 10 - - - -
19/08:30am 11.5 W 11 15 1018.5 - 0.0 - - 10 - - - -
19/08:00am 10.8 W 15 19 1018.4 - 0.0 - - 10 - - - -
19/07:30am 10.5 W 14 16 1018.3 - 0.0 - - 10 - - - -
19/07:00am 10.2 W 15 18 1018.1 - 0.0 - - 10 - - - -
19/06:30am 9.9 W 16 19 1017.8 - 0.0 - - 10 - - - -

Other Formats:

Comma delimited format used in spreadsheet applications
http://www.bom.gov.au/fwo/IDV60701/IDV60701.95960.axf

JavaScript Object Notation format (JSON) in row-major order
http://www.bom.gov.au/fwo/IDV60701/IDV60701.95960.json